createdAt,value
2023-03-21T00:00:16.381Z,61.60
2023-03-21T00:02:42.874Z,61.92
2023-03-21T00:05:15.835Z,61.81
2023-03-21T00:07:42.800Z,61.40
2023-03-21T00:10:16.501Z,61.15
2023-03-21T00:12:44.826Z,61.00
2023-03-21T00:15:12.984Z,61.14
2023-03-21T00:17:39.784Z,61.23
2023-03-21T00:20:08.306Z,60.98
2023-03-21T00:22:35.796Z,60.88
2023-03-21T00:25:02.718Z,61.17
2023-03-21T00:27:47.509Z,60.62
2023-03-21T00:30:16.257Z,60.83
2023-03-21T00:32:55.151Z,61.07
2023-03-21T00:35:53.449Z,60.80
2023-03-21T00:38:09.776Z,60.56
2023-03-21T00:40:43.785Z,60.94
2023-03-21T00:43:19.492Z,60.52
2023-03-21T00:45:46.837Z,60.61
2023-03-21T00:48:13.950Z,61.00
2023-03-21T00:50:42.162Z,61.07
2023-03-21T00:53:08.900Z,61.00
2023-03-21T00:55:35.699Z,61.01
2023-03-21T00:58:02.779Z,61.40
2023-03-21T01:00:30.013Z,61.31
2023-03-21T01:03:14.133Z,61.18
2023-03-21T01:06:09.976Z,61.46
2023-03-21T01:08:53.209Z,61.14
2023-03-21T01:11:24.677Z,60.91
2023-03-21T01:13:57.935Z,60.95
2023-03-21T01:20:21.680Z,61.50
2023-03-21T01:22:48.089Z,61.26
2023-03-21T01:25:22.453Z,61.00
2023-03-21T01:27:49.139Z,61.40
2023-03-21T01:30:21.544Z,61.13
2023-03-21T01:32:50.099Z,61.50
2023-03-21T01:35:16.620Z,61.38
2023-03-21T01:37:43.581Z,61.71
2023-03-21T01:40:18.165Z,61.98
2023-03-21T01:42:44.627Z,61.62
2023-03-21T01:45:48.210Z,61.76
2023-03-21T01:48:15.779Z,61.78
2023-03-21T01:50:43.223Z,61.87
2023-03-21T01:53:10.800Z,61.52
2023-03-21T01:55:38.286Z,61.51
2023-03-21T01:58:07.713Z,61.46
2023-03-21T02:00:36.438Z,61.35
2023-03-21T02:03:15.310Z,61.41
2023-03-21T02:05:55.883Z,61.29
2023-03-21T02:08:30.554Z,61.59
2023-03-21T02:11:05.218Z,61.25
2023-03-21T02:13:31.719Z,61.24
2023-03-21T02:16:05.759Z,61.30
2023-03-21T02:18:48.111Z,61.29
2023-03-21T02:21:33.365Z,60.95
2023-03-21T02:24:12.881Z,60.93
2023-03-21T02:27:03.965Z,61.25
2023-03-21T02:29:55.794Z,61.37
2023-03-21T02:32:41.671Z,61.01
2023-03-21T02:35:08.030Z,61.27
2023-03-21T02:37:55.237Z,61.51
2023-03-21T02:40:35.506Z,61.05
2023-03-21T02:43:22.167Z,61.20
2023-03-21T02:45:58.381Z,61.33
2023-03-21T02:48:44.395Z,61.26
2023-03-21T02:51:15.831Z,61.54
2023-03-21T02:53:49.618Z,61.74
2023-03-21T02:56:17.360Z,61.75
2023-03-21T02:58:44.459Z,61.81
2023-03-21T03:01:11.026Z,61.71
2023-03-21T03:03:39.476Z,62.05
2023-03-21T03:06:29.310Z,62.40
2023-03-21T03:09:38.698Z,62.46
2023-03-21T03:12:17.178Z,62.38
2023-03-21T03:15:03.472Z,62.13
2023-03-21T03:17:42.953Z,62.17
2023-03-21T03:20:41.071Z,62.60
2023-03-21T03:23:28.162Z,62.63
2023-03-21T03:26:00.734Z,63.37
2023-03-21T03:28:34.412Z,63.00
2023-03-21T03:31:09.140Z,62.56
2023-03-21T03:33:41.438Z,62.65
2023-03-21T03:36:18.796Z,62.47
2023-03-21T03:38:57.639Z,62.02
2023-03-21T03:41:27.077Z,61.94
2023-03-21T03:43:57.794Z,61.28
2023-03-21T03:46:31.789Z,60.91
2023-03-21T03:49:07.370Z,61.30
2023-03-21T03:51:43.932Z,61.28
2023-03-21T03:54:19.525Z,61.80
2023-03-21T03:56:46.850Z,61.73
2023-03-21T03:59:19.424Z,62.42
2023-03-21T04:01:46.112Z,63.06
2023-03-21T04:04:16.738Z,63.65
2023-03-21T04:06:51.540Z,63.93
2023-03-21T04:09:22.119Z,64.99
2023-03-21T04:11:51.596Z,65.10
2023-03-21T04:14:18.029Z,65.24
2023-03-21T04:16:44.754Z,65.77
2023-03-21T04:19:11.154Z,65.73
2023-03-21T04:21:37.948Z,66.93
2023-03-21T04:24:04.921Z,66.55
2023-03-21T04:26:33.560Z,67.18
2023-03-21T04:29:00.855Z,67.02
2023-03-21T04:31:30.998Z,66.85
2023-03-21T04:33:59.540Z,67.41
2023-03-21T04:36:28.668Z,67.54
2023-03-21T04:39:01.589Z,67.02
2023-03-21T04:41:28.859Z,66.96
2023-03-21T04:43:56.028Z,67.47
2023-03-21T04:46:23.140Z,67.66
2023-03-21T04:48:49.680Z,68.01
2023-03-21T04:51:16.523Z,68.36
2023-03-21T04:53:45.745Z,68.67
2023-03-21T04:56:12.394Z,68.08
2023-03-21T04:58:40.617Z,68.20
2023-03-21T05:01:08.169Z,67.65
2023-03-21T05:03:39.846Z,67.34
2023-03-21T05:06:08.582Z,66.34
2023-03-21T05:08:38.336Z,66.78
2023-03-21T05:11:05.521Z,66.67
2023-03-21T05:13:31.946Z,66.83
2023-03-21T05:15:58.330Z,66.21
2023-03-21T05:18:25.054Z,65.91
2023-03-21T05:20:54.138Z,65.85
2023-03-21T05:23:24.304Z,66.10
2023-03-21T05:25:51.135Z,66.45
2023-03-21T05:28:20.372Z,66.04
2023-03-21T05:30:47.108Z,65.67
2023-03-21T05:33:13.821Z,65.65
2023-03-21T05:35:40.678Z,66.01
2023-03-21T05:38:07.311Z,65.89
2023-03-21T05:40:33.719Z,66.19
2023-03-21T05:43:00.431Z,65.36
2023-03-21T05:45:27.273Z,65.67
2023-03-21T05:47:53.781Z,66.61
2023-03-21T05:50:20.365Z,66.24
2023-03-21T05:52:46.804Z,66.52
2023-03-21T05:55:13.496Z,66.46
2023-03-21T05:57:41.003Z,66.33
2023-03-21T06:00:08.728Z,66.03
2023-03-21T06:02:35.320Z,65.99
2023-03-21T06:05:01.863Z,66.10
2023-03-21T06:07:28.257Z,65.55
2023-03-21T06:09:54.776Z,65.32
2023-03-21T06:12:21.322Z,64.85
2023-03-21T06:14:47.681Z,65.01
2023-03-21T06:17:14.123Z,64.51
2023-03-21T06:19:40.577Z,64.30
2023-03-21T06:22:07.432Z,63.12
2023-03-21T06:24:33.811Z,62.11
2023-03-21T06:27:01.898Z,61.36
2023-03-21T06:29:29.343Z,60.58
2023-03-21T06:31:57.122Z,58.98
2023-03-21T06:34:23.562Z,57.81
2023-03-21T06:36:52.061Z,58.24
2023-03-21T06:39:18.542Z,57.70
2023-03-21T06:41:45.021Z,57.57
2023-03-21T06:44:11.612Z,57.43
2023-03-21T06:46:38.088Z,56.95
2023-03-21T06:49:04.721Z,57.00
2023-03-21T06:51:31.435Z,56.65
2023-03-21T06:53:57.852Z,56.05
2023-03-21T06:56:24.269Z,56.18
2023-03-21T06:58:50.827Z,55.89
2023-03-21T07:01:17.322Z,55.74
2023-03-21T07:03:43.972Z,55.54
2023-03-21T07:06:11.904Z,55.45
2023-03-21T07:08:39.419Z,54.44
2023-03-21T07:11:06.449Z,52.60
2023-03-21T07:13:33.685Z,52.51
2023-03-21T07:16:00.536Z,51.58
2023-03-21T07:18:27.308Z,51.86
2023-03-21T07:20:53.823Z,50.45
2023-03-21T07:23:22.439Z,49.04
2023-03-21T07:25:50.940Z,48.20
2023-03-21T07:28:18.044Z,47.06
2023-03-21T07:30:45.811Z,46.50
2023-03-21T07:33:12.982Z,44.71
2023-03-21T07:35:39.715Z,45.11
2023-03-21T07:38:06.708Z,44.86
2023-03-21T07:40:33.508Z,44.81
2023-03-21T07:43:00.146Z,44.94
2023-03-21T07:45:27.367Z,44.58
2023-03-21T07:47:54.468Z,44.01
2023-03-21T07:50:20.995Z,43.55
2023-03-21T07:52:47.667Z,42.03
2023-03-21T07:55:14.127Z,38.35
2023-03-21T07:57:41.040Z,37.57
2023-03-21T08:00:08.533Z,36.34
2023-03-21T08:02:35.021Z,34.43
2023-03-21T08:05:01.478Z,32.60
2023-03-21T08:07:27.928Z,31.59
2023-03-21T08:09:54.663Z,30.02
2023-03-21T08:12:21.144Z,29.37
2023-03-21T08:14:47.780Z,29.20
2023-03-21T08:17:14.226Z,28.82
2023-03-21T08:19:40.815Z,29.81
2023-03-21T08:22:07.272Z,30.00
2023-03-21T08:24:34.105Z,31.93
2023-03-21T08:27:01.576Z,33.30
2023-03-21T08:29:28.270Z,32.87
2023-03-21T08:31:54.714Z,31.52
2023-03-21T08:34:22.998Z,30.20
2023-03-21T08:36:49.874Z,28.75
2023-03-21T08:39:16.223Z,27.72
2023-03-21T08:41:42.687Z,27.81
2023-03-21T08:44:10.680Z,28.36
2023-03-21T08:46:37.203Z,27.58
2023-03-21T08:49:03.641Z,25.43
2023-03-21T08:51:30.026Z,23.84
2023-03-21T08:53:56.657Z,24.54
2023-03-21T08:56:23.117Z,23.64
2023-03-21T08:58:49.864Z,23.55
2023-03-21T09:01:16.325Z,22.68
2023-03-21T09:03:43.528Z,22.74
2023-03-21T09:06:13.399Z,21.88
2023-03-21T09:08:42.186Z,22.10
2023-03-21T09:11:10.384Z,21.01
2023-03-21T09:13:36.955Z,21.92
2023-03-21T09:16:05.222Z,21.54
2023-03-21T09:18:47.461Z,21.14
2023-03-21T09:21:16.504Z,21.65
2023-03-21T09:23:45.001Z,21.56
2023-03-21T09:26:12.557Z,24.04
2023-03-21T09:28:40.499Z,25.56
2023-03-21T09:31:11.576Z,26.61
2023-03-21T09:33:42.430Z,27.80
2023-03-21T09:36:12.089Z,27.36
2023-03-21T09:38:40.601Z,26.78
2023-03-21T09:41:29.999Z,27.92
2023-03-21T09:44:08.067Z,28.92
2023-03-21T09:47:05.375Z,28.71
2023-03-21T09:49:38.246Z,27.29
2023-03-21T09:52:16.192Z,28.89
2023-03-21T09:54:44.665Z,29.29
2023-03-21T09:57:38.058Z,29.67
2023-03-21T10:00:09.313Z,29.03
2023-03-21T10:02:39.472Z,30.37
2023-03-21T10:05:20.982Z,31.00
2023-03-21T10:07:52.971Z,31.94
2023-03-21T10:10:27.838Z,31.77
2023-03-21T10:12:56.293Z,32.67
2023-03-21T10:15:25.920Z,32.71
2023-03-21T10:18:02.058Z,33.04
2023-03-21T10:20:37.053Z,32.92
2023-03-21T10:23:06.946Z,33.20
2023-03-21T10:25:41.099Z,32.06
2023-03-21T10:28:13.530Z,32.50
2023-03-21T10:30:48.791Z,32.17
2023-03-21T10:33:23.221Z,31.10
2023-03-21T10:35:53.629Z,31.48
2023-03-21T10:38:23.310Z,32.22
2023-03-21T10:40:50.237Z,31.57
2023-03-21T10:43:25.812Z,34.20
2023-03-21T10:45:54.134Z,34.49
2023-03-21T10:48:21.698Z,34.81
2023-03-21T10:50:51.707Z,33.86
2023-03-21T10:53:22.677Z,33.24
2023-03-21T10:55:54.251Z,33.27
2023-03-21T10:58:27.244Z,32.86
2023-03-21T11:01:00.799Z,33.02
2023-03-21T11:03:31.420Z,33.74
2023-03-21T11:06:28.377Z,34.45
2023-03-21T11:09:00.413Z,34.85
2023-03-21T11:11:33.252Z,34.70
2023-03-21T11:14:06.851Z,34.12
2023-03-21T11:16:41.072Z,34.54
2023-03-21T11:19:17.370Z,34.18
2023-03-21T11:21:44.895Z,33.82
2023-03-21T11:24:16.126Z,34.31
2023-03-21T11:26:48.159Z,34.51
2023-03-21T11:29:34.655Z,33.81
2023-03-21T11:32:13.226Z,34.30
2023-03-21T11:34:47.693Z,34.59
2023-03-21T11:37:46.373Z,35.20
2023-03-21T11:40:19.404Z,35.31
2023-03-21T11:42:51.997Z,35.53
2023-03-21T11:45:22.592Z,35.55
2023-03-21T11:47:51.233Z,35.33
2023-03-21T11:50:27.540Z,34.56
2023-03-21T11:53:06.166Z,34.63
2023-03-21T11:56:03.823Z,36.03
2023-03-21T11:58:52.233Z,36.22
2023-03-21T12:01:24.524Z,35.84
2023-03-21T12:04:04.353Z,35.79
2023-03-21T12:06:55.007Z,36.57
2023-03-21T12:09:39.880Z,35.27
2023-03-21T12:12:39.906Z,33.67
2023-03-21T12:15:31.106Z,32.73
2023-03-21T12:18:29.289Z,32.36
2023-03-21T12:21:04.174Z,32.52
2023-03-21T12:23:39.969Z,32.32
2023-03-21T12:26:19.473Z,33.00
2023-03-21T12:29:19.681Z,33.10
2023-03-21T12:32:16.049Z,32.48
2023-03-21T12:35:09.516Z,33.32
2023-03-21T12:38:03.944Z,32.86
2023-03-21T12:40:42.198Z,31.90
2023-03-21T12:43:42.668Z,31.25
2023-03-21T12:46:34.741Z,30.98
2023-03-21T12:49:07.150Z,29.46
2023-03-21T12:51:39.976Z,30.41
2023-03-21T12:54:35.030Z,30.75
2023-03-21T12:57:19.514Z,29.94
2023-03-21T12:59:50.023Z,29.51
2023-03-21T13:02:31.118Z,28.82
2023-03-21T13:05:06.671Z,29.34
2023-03-21T13:07:38.999Z,28.05
2023-03-21T13:10:17.909Z,27.77
2023-03-21T13:13:10.061Z,28.62
2023-03-21T13:15:48.829Z,28.09
2023-03-21T13:18:37.921Z,27.71
2023-03-21T13:21:31.703Z,28.00
2023-03-21T13:24:19.113Z,26.96
2023-03-21T13:26:52.235Z,29.28
2023-03-21T13:29:29.258Z,29.23
2023-03-21T13:32:06.564Z,28.58
2023-03-21T13:34:33.169Z,26.89
2023-03-21T13:37:01.369Z,27.39
2023-03-21T13:39:29.301Z,27.42
2023-03-21T13:42:03.680Z,27.34
2023-03-21T13:44:43.582Z,27.85
2023-03-21T13:47:30.687Z,28.36
2023-03-21T13:50:22.097Z,27.04
2023-03-21T13:53:04.076Z,27.43
2023-03-21T13:55:41.665Z,26.58
2023-03-21T13:58:34.828Z,26.90
2023-03-21T14:01:10.806Z,26.38
2023-03-21T14:03:39.164Z,26.25
2023-03-21T14:06:06.874Z,26.52
2023-03-21T14:08:37.656Z,27.09
2023-03-21T14:11:10.029Z,26.96
2023-03-21T14:13:48.348Z,26.87
2023-03-21T14:16:17.583Z,26.21
2023-03-21T14:18:54.474Z,26.75
2023-03-21T14:21:50.189Z,26.80
2023-03-21T14:24:17.963Z,27.09
2023-03-21T14:26:49.126Z,26.92
2023-03-21T14:29:35.216Z,26.99
2023-03-21T14:32:03.317Z,26.77
2023-03-21T14:34:33.435Z,27.25
2023-03-21T14:37:00.068Z,26.77
2023-03-21T14:39:29.750Z,27.19
2023-03-21T14:42:03.148Z,28.53
2023-03-21T14:44:58.101Z,28.23
2023-03-21T14:47:27.917Z,27.80
2023-03-21T14:49:55.664Z,27.57
2023-03-21T14:52:30.108Z,28.43
2023-03-21T14:54:57.010Z,28.13
2023-03-21T14:57:28.797Z,28.47
2023-03-21T15:00:00.138Z,28.49
2023-03-21T15:02:31.097Z,29.29
2023-03-21T15:05:05.487Z,29.66
2023-03-21T15:07:34.287Z,29.56
2023-03-21T15:10:05.527Z,30.32
2023-03-21T15:12:33.408Z,30.25
2023-03-21T15:15:01.659Z,30.62
2023-03-21T15:17:29.243Z,30.19
2023-03-21T15:19:55.922Z,30.39
2023-03-21T15:22:54.164Z,30.24
2023-03-21T15:25:27.788Z,29.61
2023-03-21T15:27:56.102Z,31.06
2023-03-21T15:30:26.199Z,30.81
2023-03-21T15:32:53.712Z,31.72
2023-03-21T15:35:25.949Z,32.25
2023-03-21T15:37:56.670Z,32.33
2023-03-21T15:40:31.708Z,33.38
2023-03-21T15:43:07.357Z,33.08
2023-03-21T15:45:34.134Z,32.82
2023-03-21T15:48:03.407Z,33.47
2023-03-21T15:50:41.590Z,32.78
2023-03-21T15:53:14.952Z,32.17
2023-03-21T15:55:48.223Z,31.12
2023-03-21T15:58:19.678Z,32.30
2023-03-21T16:00:57.457Z,32.17
2023-03-21T16:03:27.571Z,32.43
2023-03-21T16:06:15.522Z,32.26
2023-03-21T16:08:44.697Z,32.21
2023-03-21T16:11:19.136Z,32.23
2023-03-21T16:13:46.148Z,32.37
2023-03-21T16:16:19.762Z,32.48
2023-03-21T16:18:46.352Z,32.58
2023-03-21T16:21:14.667Z,32.74
2023-03-21T16:23:41.736Z,32.94
2023-03-21T16:26:14.166Z,34.07
2023-03-21T16:28:40.635Z,34.25
2023-03-21T16:31:17.608Z,34.40
2023-03-21T16:33:44.848Z,34.75
2023-03-21T16:36:29.199Z,35.47
2023-03-21T16:38:55.953Z,35.33
2023-03-21T16:41:24.277Z,35.35
2023-03-21T16:43:52.190Z,34.79
2023-03-21T16:46:26.126Z,35.11
2023-03-21T16:48:56.310Z,35.34
2023-03-21T16:51:31.457Z,35.31
2023-03-21T16:53:58.299Z,35.26
2023-03-21T16:56:27.200Z,35.06
2023-03-21T16:58:54.688Z,35.14
2023-03-21T17:01:25.848Z,35.49
2023-03-21T17:03:53.417Z,35.32
2023-03-21T17:06:25.324Z,35.63
2023-03-21T17:08:53.579Z,34.77
2023-03-21T17:11:23.226Z,35.09
2023-03-21T17:13:52.087Z,34.90
2023-03-21T17:16:23.818Z,34.71
2023-03-21T17:18:51.742Z,34.71
2023-03-21T17:21:20.746Z,34.98
2023-03-21T17:23:47.810Z,35.51
2023-03-21T17:26:23.645Z,35.39
2023-03-21T17:28:50.573Z,35.32
2023-03-21T17:31:19.480Z,36.16
2023-03-21T17:33:46.673Z,35.52
2023-03-21T17:36:18.942Z,35.86
2023-03-21T17:38:46.014Z,37.04
2023-03-21T17:41:14.512Z,36.90
2023-03-21T17:43:41.380Z,37.84
2023-03-21T17:46:13.251Z,37.85
2023-03-21T17:48:39.984Z,38.33
2023-03-21T17:51:06.749Z,38.66
2023-03-21T17:53:33.211Z,39.25
2023-03-21T17:56:00.267Z,39.69
2023-03-21T17:58:26.752Z,39.79
2023-03-21T18:00:53.439Z,40.11
2023-03-21T18:03:20.279Z,40.01
2023-03-21T18:05:46.739Z,40.07
2023-03-21T18:08:13.300Z,40.06
2023-03-21T18:10:41.095Z,39.93
2023-03-21T18:13:08.125Z,39.81
2023-03-21T18:15:35.974Z,40.09
2023-03-21T18:18:04.495Z,39.99
2023-03-21T18:20:57.961Z,40.14
2023-03-21T18:23:19.084Z,40.65
2023-03-21T18:25:45.563Z,40.48
2023-03-21T18:28:12.996Z,40.64
2023-03-21T18:33:27.334Z,40.87
2023-03-21T18:35:58.976Z,40.62
2023-03-21T18:38:27.542Z,40.01
2023-03-21T18:40:54.521Z,40.49
2023-03-21T18:46:08.640Z,40.84
2023-03-21T18:48:35.612Z,40.97
2023-03-21T18:51:02.929Z,41.50
2023-03-21T18:53:29.864Z,41.23
2023-03-21T18:55:57.533Z,41.94
2023-03-21T18:58:25.455Z,42.29
2023-03-21T19:00:53.688Z,42.21
2023-03-21T19:03:34.323Z,42.41
2023-03-21T19:06:03.671Z,42.90
2023-03-21T19:08:32.402Z,42.69
2023-03-21T19:11:03.764Z,42.54
2023-03-21T19:13:33.391Z,42.91
2023-03-21T19:16:02.461Z,43.83
2023-03-21T19:18:49.926Z,44.96
2023-03-21T19:21:19.916Z,45.52
2023-03-21T19:26:33.873Z,48.13
2023-03-21T19:29:00.376Z,48.66
2023-03-21T19:31:27.182Z,50.22
2023-03-21T19:33:53.980Z,52.59
2023-03-21T19:36:22.938Z,53.20
2023-03-21T19:38:49.905Z,53.14
2023-03-21T19:41:16.830Z,53.99
2023-03-21T19:43:53.129Z,54.94
2023-03-21T19:46:23.109Z,54.76
2023-03-21T19:48:50.126Z,54.62
2023-03-21T19:51:32.904Z,54.45
2023-03-21T19:54:03.264Z,55.01
2023-03-21T19:56:31.626Z,55.55
2023-03-21T19:58:58.643Z,54.67
2023-03-21T20:01:25.614Z,54.17
2023-03-21T20:03:52.166Z,55.10
2023-03-21T20:06:19.056Z,55.73
2023-03-21T20:11:32.557Z,54.69
2023-03-21T20:13:59.834Z,55.13
2023-03-21T20:16:33.639Z,55.71
2023-03-21T20:19:00.949Z,55.96
2023-03-21T20:21:33.831Z,55.44
2023-03-21T20:24:06.981Z,54.74
2023-03-21T20:26:34.177Z,55.02
2023-03-21T20:29:33.948Z,53.60
2023-03-21T20:31:47.519Z,53.06
2023-03-21T20:34:14.211Z,52.65
2023-03-21T20:36:43.427Z,52.97
2023-03-21T20:39:10.200Z,52.89
2023-03-21T20:41:36.842Z,52.62
2023-03-21T20:46:50.542Z,52.52
2023-03-21T20:49:17.105Z,52.67
2023-03-21T20:54:30.334Z,52.00
2023-03-21T20:56:57.204Z,52.33
2023-03-21T20:59:27.567Z,52.25
2023-03-21T21:01:55.719Z,52.40
2023-03-21T21:04:23.120Z,52.32
2023-03-21T21:06:53.813Z,52.70
2023-03-21T21:09:20.876Z,53.28
2023-03-21T21:12:06.233Z,53.29
2023-03-21T21:14:35.727Z,53.36
2023-03-21T21:17:15.478Z,53.63
2023-03-21T21:19:49.946Z,54.03
2023-03-21T21:22:17.339Z,53.61
2023-03-21T21:24:44.646Z,53.83
2023-03-21T21:27:11.877Z,54.23
2023-03-21T21:29:38.423Z,53.20
2023-03-21T21:32:05.291Z,52.84
2023-03-21T21:34:32.161Z,52.61
2023-03-21T21:36:58.542Z,52.28
2023-03-21T21:39:26.648Z,51.15
2023-03-21T21:41:54.065Z,51.05
2023-03-21T21:44:20.718Z,50.98
2023-03-21T21:46:47.606Z,51.51
2023-03-21T21:49:14.097Z,51.63
2023-03-21T21:51:41.789Z,51.51
2023-03-21T21:54:08.135Z,52.24
2023-03-21T21:56:38.491Z,52.74
2023-03-21T21:59:05.471Z,52.83
2023-03-21T22:01:38.501Z,53.35
2023-03-21T22:04:08.286Z,53.49
2023-03-21T22:06:34.996Z,53.35
2023-03-21T22:09:06.927Z,53.59
2023-03-21T22:11:33.702Z,53.94
2023-03-21T22:14:00.083Z,53.62
2023-03-21T22:16:26.589Z,53.21
2023-03-21T22:18:53.056Z,53.36
2023-03-21T22:21:19.487Z,52.79
2023-03-21T22:23:45.984Z,52.80
2023-03-21T22:26:12.673Z,52.39
2023-03-21T22:28:42.172Z,52.63
2023-03-21T22:31:14.499Z,52.69
2023-03-21T22:33:41.891Z,52.87
2023-03-21T22:36:09.108Z,53.26
2023-03-21T22:38:38.178Z,53.64
2023-03-21T22:41:05.927Z,53.38
2023-03-21T22:43:34.171Z,53.92
2023-03-21T22:46:04.697Z,54.10
2023-03-21T22:48:31.763Z,54.51
2023-03-21T22:50:59.596Z,54.34
2023-03-21T22:53:26.221Z,54.77
2023-03-21T22:55:52.855Z,54.81
2023-03-21T22:58:19.255Z,54.90
2023-03-21T23:00:45.896Z,55.11
2023-03-21T23:03:14.625Z,55.42
2023-03-21T23:05:41.390Z,55.72
2023-03-21T23:08:08.409Z,55.75
2023-03-21T23:10:38.070Z,55.83
2023-03-21T23:13:04.734Z,55.97
2023-03-21T23:15:31.193Z,55.81
2023-03-21T23:17:57.535Z,55.95
2023-03-21T23:20:23.977Z,56.23
2023-03-21T23:22:50.530Z,56.83
2023-03-21T23:25:16.960Z,56.99
2023-03-21T23:27:43.363Z,57.15
2023-03-21T23:30:10.176Z,57.24
2023-03-21T23:32:36.857Z,56.85
2023-03-21T23:35:03.590Z,57.26
2023-03-21T23:37:30.080Z,57.50
2023-03-21T23:39:56.554Z,57.83
2023-03-21T23:42:24.042Z,57.79
2023-03-21T23:44:50.760Z,57.90
2023-03-21T23:47:17.380Z,57.90
2023-03-21T23:49:49.174Z,58.24
2023-03-21T23:52:16.641Z,58.24
2023-03-21T23:54:43.315Z,58.15
2023-03-21T23:57:10.334Z,58.20
2023-03-21T23:59:36.738Z,58.27
